Terminal Aerodrome Forecast
Issued by NWS

Current Version | Previous Version | Text Only | Print | Product List | Glossary On
Versions: 1 2 3 4 5 6 7 8 9 10 11 12 13 14 15 16 17 18 19 20 21 22 23 24 25 26 27 28 29 30 31 32 33 34 35 36 37 38 39 40 41 42
000 FTUS41 KBOX 290942 AAA TAFBAF TAF AMD KBAF 290942Z 2910/3006 VRB03KT P6SM SCT120 FM291500 23006KT P6SM FEW120 SCT250 FM291900 19005KT P6SM BKN100=

USA.gov is the U.S. government's official web portal to all federal, state and local government web resources and services.